createdAt,value
2023-05-21T00:02:04.438Z,15.12
2023-05-21T00:04:34.242Z,15.09
2023-05-21T00:07:04.144Z,15.04
2023-05-21T00:09:33.499Z,15.00
2023-05-21T00:12:04.978Z,14.96
2023-05-21T00:14:35.276Z,14.92
2023-05-21T00:17:05.585Z,14.89
2023-05-21T00:19:34.968Z,14.86
2023-05-21T00:22:07.557Z,14.85
2023-05-21T00:24:38.160Z,14.80
2023-05-21T00:27:07.400Z,14.78
2023-05-21T00:29:36.635Z,14.75
2023-05-21T00:32:09.247Z,14.73
2023-05-21T00:34:38.609Z,14.71
2023-05-21T00:37:10.153Z,14.64
2023-05-21T00:39:39.827Z,14.62
2023-05-21T00:42:09.338Z,14.62
2023-05-21T00:44:39.586Z,14.63
2023-05-21T00:47:09.621Z,14.63
2023-05-21T00:49:39.125Z,14.62
2023-05-21T00:52:10.114Z,14.62
2023-05-21T00:54:41.865Z,14.60
2023-05-21T00:57:11.463Z,14.59
2023-05-21T00:59:41.315Z,14.59
2023-05-21T01:02:14.356Z,14.59
2023-05-21T01:04:47.585Z,14.58
2023-05-21T01:07:18.816Z,14.57
2023-05-21T01:09:48.568Z,14.56
2023-05-21T01:12:22.191Z,14.55
2023-05-21T01:14:55.425Z,14.55
2023-05-21T01:17:30.064Z,14.54
2023-05-21T01:20:02.649Z,14.54
2023-05-21T01:22:35.492Z,14.53
2023-05-21T01:25:05.757Z,14.51
2023-05-21T01:27:36.452Z,14.50
2023-05-21T01:30:07.511Z,14.48
2023-05-21T01:32:48.037Z,14.46
2023-05-21T01:35:26.711Z,14.45
2023-05-21T01:38:34.203Z,14.45
2023-05-21T01:41:10.444Z,14.44
2023-05-21T01:43:44.145Z,14.41
2023-05-21T01:46:21.943Z,14.37
2023-05-21T01:48:53.103Z,14.36
2023-05-21T01:51:24.271Z,14.33
2023-05-21T01:53:53.654Z,14.31
2023-05-21T01:56:25.969Z,14.29
2023-05-21T01:58:59.769Z,14.25
2023-05-21T02:01:32.483Z,14.23
2023-05-21T02:04:02.188Z,14.22
2023-05-21T02:06:31.991Z,14.20
2023-05-21T02:09:04.070Z,14.19
2023-05-21T02:11:33.302Z,14.17
2023-05-21T02:14:04.135Z,14.16
2023-05-21T02:16:33.618Z,14.17
2023-05-21T02:19:04.926Z,14.16
2023-05-21T02:21:34.360Z,14.16
2023-05-21T02:24:03.934Z,14.15
2023-05-21T02:26:33.164Z,14.15
2023-05-21T02:29:05.673Z,14.13
2023-05-21T02:31:35.263Z,14.10
2023-05-21T02:34:05.725Z,14.10
2023-05-21T02:36:36.304Z,14.09
2023-05-21T02:39:07.934Z,14.08
2023-05-21T02:41:38.574Z,14.09
2023-05-21T02:44:09.811Z,14.09
2023-05-21T02:46:39.989Z,14.08
2023-05-21T02:49:09.392Z,14.08
2023-05-21T02:51:38.743Z,14.06
2023-05-21T02:54:08.168Z,14.05
2023-05-21T02:56:37.725Z,14.04
2023-05-21T02:59:07.419Z,14.04
2023-05-21T03:01:43.719Z,14.05
2023-05-21T03:04:13.217Z,14.06
2023-05-21T03:06:42.869Z,14.07
2023-05-21T03:09:12.343Z,14.09
2023-05-21T03:11:44.332Z,14.09
2023-05-21T03:14:14.718Z,14.10
2023-05-21T03:16:46.005Z,14.11
2023-05-21T03:19:15.726Z,14.11
2023-05-21T03:21:50.730Z,14.14
2023-05-21T03:24:22.524Z,14.14
2023-05-21T03:26:51.900Z,14.16
2023-05-21T03:29:22.143Z,14.19
2023-05-21T03:31:56.881Z,14.20
2023-05-21T03:34:26.365Z,14.21
2023-05-21T03:36:55.736Z,14.22
2023-05-21T03:39:26.206Z,14.22
2023-05-21T03:41:57.215Z,14.24
2023-05-21T03:44:34.756Z,14.28
2023-05-21T03:47:19.198Z,14.31
2023-05-21T03:49:51.056Z,14.34
2023-05-21T03:52:20.581Z,14.38
2023-05-21T03:54:53.241Z,14.42
2023-05-21T03:57:25.722Z,14.45
2023-05-21T04:00:06.696Z,14.47
2023-05-21T04:02:45.352Z,14.48
2023-05-21T04:05:16.442Z,14.52
2023-05-21T04:07:49.041Z,14.55
2023-05-21T04:10:18.621Z,14.59
2023-05-21T04:12:52.675Z,14.64
2023-05-21T04:15:22.671Z,14.71
2023-05-21T04:17:53.486Z,14.79
2023-05-21T04:20:23.079Z,14.84
2023-05-21T04:22:53.147Z,14.89
2023-05-21T04:25:23.416Z,14.96
2023-05-21T04:27:54.839Z,14.99
2023-05-21T04:30:25.011Z,15.05
2023-05-21T04:32:55.081Z,15.10
2023-05-21T04:35:24.791Z,15.13
2023-05-21T04:37:55.347Z,15.19
2023-05-21T04:40:25.975Z,15.26
2023-05-21T04:42:57.338Z,15.30
2023-05-21T04:45:27.265Z,15.36
2023-05-21T04:48:00.759Z,15.45
2023-05-21T04:50:31.822Z,15.50
2023-05-21T04:53:03.541Z,15.59
2023-05-21T04:55:33.291Z,15.70
2023-05-21T04:58:04.360Z,15.79
2023-05-21T05:00:35.081Z,15.90
2023-05-21T05:03:06.673Z,16.02
2023-05-21T05:05:36.529Z,16.14
2023-05-21T05:08:07.823Z,16.22
2023-05-21T05:10:37.291Z,16.28
2023-05-21T05:13:07.843Z,16.36
2023-05-21T05:15:37.833Z,16.46
2023-05-21T05:18:08.846Z,16.54
2023-05-21T05:20:39.821Z,16.61
2023-05-21T05:23:10.624Z,16.70
2023-05-21T05:25:40.650Z,16.78
2023-05-21T05:28:12.333Z,16.87
2023-05-21T05:30:42.427Z,16.99
2023-05-21T05:33:23.795Z,17.10
2023-05-21T05:35:54.845Z,17.21
2023-05-21T05:38:27.110Z,17.30
2023-05-21T05:40:56.648Z,17.41
2023-05-21T05:43:28.135Z,17.52
2023-05-21T05:45:58.343Z,17.65
2023-05-21T05:48:27.849Z,17.77
2023-05-21T05:50:57.482Z,17.90
2023-05-21T05:53:28.183Z,18.01
2023-05-21T05:56:00.262Z,18.12
2023-05-21T05:58:31.890Z,18.24
2023-05-21T06:01:10.476Z,18.36
2023-05-21T06:03:40.035Z,18.50
2023-05-21T06:06:38.986Z,18.66
2023-05-21T06:09:10.946Z,18.81
2023-05-21T06:11:41.219Z,18.94
2023-05-21T06:14:13.057Z,19.05
2023-05-21T06:16:42.888Z,19.14
2023-05-21T06:19:15.667Z,19.22
2023-05-21T06:21:47.810Z,19.34
2023-05-21T06:24:17.480Z,19.45
2023-05-21T06:26:47.186Z,19.56
2023-05-21T06:29:17.467Z,19.66
2023-05-21T06:31:48.796Z,19.77
2023-05-21T06:34:18.750Z,19.87
2023-05-21T06:36:49.159Z,19.95
2023-05-21T06:39:19.315Z,20.03
2023-05-21T06:41:48.995Z,20.11
2023-05-21T06:45:00.481Z,20.20
2023-05-21T06:47:38.164Z,20.27
2023-05-21T06:50:08.236Z,20.36
2023-05-21T06:52:37.888Z,20.45
2023-05-21T06:55:09.842Z,20.53
2023-05-21T06:57:59.136Z,20.62
2023-05-21T07:00:28.637Z,20.72
2023-05-21T07:02:58.014Z,20.78
2023-05-21T07:05:28.965Z,20.83
2023-05-21T07:07:58.648Z,20.88
2023-05-21T07:10:28.154Z,20.97
2023-05-21T07:12:57.668Z,21.04
2023-05-21T07:15:27.232Z,21.13
2023-05-21T07:17:56.737Z,21.26
2023-05-21T07:20:31.223Z,21.38
2023-05-21T07:23:02.916Z,21.44
2023-05-21T07:25:32.253Z,21.50
2023-05-21T07:28:06.427Z,21.61
2023-05-21T07:30:42.622Z,21.75
2023-05-21T07:33:16.839Z,21.85
2023-05-21T07:35:48.213Z,21.97
2023-05-21T07:38:20.733Z,22.09
2023-05-21T07:40:51.546Z,22.19
2023-05-21T07:43:21.333Z,22.30
2023-05-21T07:45:52.085Z,22.44
2023-05-21T07:48:21.550Z,22.59
2023-05-21T07:51:00.736Z,22.69
2023-05-21T07:53:32.739Z,22.75
2023-05-21T07:56:03.980Z,22.87
2023-05-21T07:58:36.694Z,23.01
2023-05-21T08:01:15.214Z,23.15
2023-05-21T08:03:45.233Z,23.22
2023-05-21T08:06:16.189Z,23.24
2023-05-21T08:08:46.072Z,23.28
2023-05-21T08:11:16.284Z,23.40
2023-05-21T08:13:46.334Z,23.54
2023-05-21T08:16:16.796Z,23.60
2023-05-21T08:18:46.317Z,23.70
2023-05-21T08:21:17.155Z,23.80
2023-05-21T08:23:46.729Z,23.87
2023-05-21T08:26:19.191Z,23.96
2023-05-21T08:28:48.782Z,24.00
2023-05-21T08:31:19.359Z,24.06
2023-05-21T08:33:53.764Z,24.18
2023-05-21T08:36:27.202Z,24.34
2023-05-21T08:39:01.778Z,24.49
2023-05-21T08:41:38.069Z,24.71
2023-05-21T08:44:13.420Z,24.92
2023-05-21T08:46:45.754Z,25.01
2023-05-21T08:49:19.003Z,25.04
2023-05-21T08:51:50.756Z,25.07
2023-05-21T08:54:32.705Z,25.01
2023-05-21T08:57:04.705Z,24.95
2023-05-21T08:59:36.077Z,24.95
2023-05-21T09:02:06.330Z,24.95
2023-05-21T09:04:41.464Z,24.95
2023-05-21T09:07:11.288Z,24.97
2023-05-21T09:10:14.680Z,24.94
2023-05-21T09:12:44.713Z,24.99
2023-05-21T09:15:14.509Z,25.09
2023-05-21T09:17:49.079Z,25.19
2023-05-21T09:20:33.603Z,25.36
2023-05-21T09:23:12.597Z,25.59
2023-05-21T09:25:45.343Z,25.78
2023-05-21T09:28:17.577Z,25.81
2023-05-21T09:30:49.061Z,25.79
2023-05-21T09:33:26.770Z,25.91
2023-05-21T09:35:59.035Z,26.05
2023-05-21T09:38:29.682Z,26.25
2023-05-21T09:41:00.020Z,26.41
2023-05-21T09:43:31.377Z,26.48
2023-05-21T09:46:02.251Z,26.57
2023-05-21T09:48:44.791Z,26.71
2023-05-21T09:51:21.675Z,26.88
2023-05-21T09:53:55.813Z,27.01
2023-05-21T09:56:30.829Z,27.09
2023-05-21T09:59:04.477Z,27.14
2023-05-21T10:01:40.914Z,27.13
2023-05-21T10:04:31.791Z,27.11
2023-05-21T10:07:02.678Z,27.02
2023-05-21T10:09:33.838Z,26.93
2023-05-21T10:12:05.477Z,26.85
2023-05-21T10:14:36.609Z,26.74
2023-05-21T10:17:08.835Z,26.66
2023-05-21T10:19:40.692Z,26.68
2023-05-21T10:22:10.407Z,26.68
2023-05-21T10:24:42.673Z,26.72
2023-05-21T10:27:14.350Z,26.76
2023-05-21T10:29:48.361Z,26.78
2023-05-21T10:32:21.841Z,26.89
2023-05-21T10:34:54.117Z,26.98
2023-05-21T10:37:28.132Z,27.17
2023-05-21T10:39:57.944Z,27.44
2023-05-21T10:42:33.124Z,27.71
2023-05-21T10:45:54.462Z,27.86
2023-05-21T10:48:53.129Z,28.14
2023-05-21T10:51:37.783Z,28.21
2023-05-21T10:54:19.802Z,27.96
2023-05-21T10:57:06.082Z,27.84
2023-05-21T10:59:48.863Z,27.82
2023-05-21T11:02:20.457Z,27.89
2023-05-21T11:04:59.414Z,27.96
2023-05-21T11:07:53.955Z,27.88
2023-05-21T11:10:41.193Z,27.82
2023-05-21T11:13:18.917Z,27.79
2023-05-21T11:15:57.892Z,27.77
2023-05-21T11:18:38.147Z,27.76
2023-05-21T11:21:10.992Z,27.78
2023-05-21T11:24:05.630Z,27.66
2023-05-21T11:26:52.284Z,27.51
2023-05-21T11:29:40.547Z,27.25
2023-05-21T11:32:12.997Z,26.95
2023-05-21T11:34:48.154Z,26.75
2023-05-21T11:37:17.960Z,26.65
2023-05-21T11:39:49.506Z,26.57
2023-05-21T11:42:31.115Z,26.51
2023-05-21T11:45:04.664Z,26.39
2023-05-21T11:47:35.337Z,26.34
2023-05-21T11:50:05.337Z,26.26
2023-05-21T11:52:35.190Z,26.16
2023-05-21T11:55:05.993Z,26.11
2023-05-21T11:57:35.381Z,26.01
2023-05-21T12:00:14.193Z,25.94
2023-05-21T12:02:50.310Z,25.91
2023-05-21T12:05:20.162Z,25.89
2023-05-21T12:07:50.628Z,25.87
2023-05-21T12:10:24.437Z,25.89
2023-05-21T12:12:57.697Z,25.85
2023-05-21T12:15:27.792Z,25.81
2023-05-21T12:17:58.035Z,25.80
2023-05-21T12:20:28.863Z,25.76
2023-05-21T12:22:59.978Z,25.74
2023-05-21T12:25:30.419Z,25.73
2023-05-21T12:28:02.114Z,25.77
2023-05-21T12:30:32.075Z,25.95
2023-05-21T12:33:02.597Z,26.11
2023-05-21T12:35:32.450Z,26.26
2023-05-21T12:38:03.369Z,26.39
2023-05-21T12:40:40.628Z,26.46
2023-05-21T12:43:10.658Z,26.51
2023-05-21T12:45:40.977Z,26.53
2023-05-21T12:48:12.811Z,26.51
2023-05-21T12:50:44.190Z,26.51
2023-05-21T12:53:13.764Z,26.50
2023-05-21T12:55:43.314Z,26.49
2023-05-21T12:58:14.529Z,26.43
2023-05-21T13:00:46.743Z,26.42
2023-05-21T13:03:16.667Z,26.42
2023-05-21T13:05:46.200Z,26.38
2023-05-21T13:08:18.224Z,26.32
2023-05-21T13:10:51.711Z,26.32
2023-05-21T13:13:21.543Z,26.27
2023-05-21T13:15:51.176Z,26.23
2023-05-21T13:18:23.501Z,26.29
2023-05-21T13:20:53.117Z,26.58
2023-05-21T13:23:22.827Z,26.89
2023-05-21T13:25:52.291Z,27.13
2023-05-21T13:28:22.174Z,27.33
2023-05-21T13:30:56.162Z,27.58
2023-05-21T13:33:25.768Z,27.64
2023-05-21T13:35:55.396Z,27.63
2023-05-21T13:38:25.070Z,27.72
2023-05-21T13:40:56.732Z,27.95
2023-05-21T13:43:26.213Z,28.09
2023-05-21T13:45:55.508Z,28.17
2023-05-21T13:48:25.161Z,28.31
2023-05-21T13:50:55.095Z,28.37
2023-05-21T13:53:26.024Z,28.49
2023-05-21T13:55:56.632Z,28.59
2023-05-21T13:58:28.109Z,28.60
2023-05-21T14:00:57.798Z,28.66
2023-05-21T14:03:27.960Z,28.68
2023-05-21T14:05:57.947Z,28.70
2023-05-21T14:08:29.162Z,28.56
2023-05-21T14:10:58.858Z,28.40
2023-05-21T14:13:29.186Z,28.18
2023-05-21T14:15:59.877Z,27.89
2023-05-21T14:18:29.358Z,27.58
2023-05-21T14:20:59.042Z,27.36
2023-05-21T14:23:29.574Z,27.11
2023-05-21T14:25:59.144Z,27.13
2023-05-21T14:28:28.754Z,27.26
2023-05-21T14:30:58.013Z,27.28
2023-05-21T14:33:27.541Z,27.37
2023-05-21T14:35:57.215Z,27.36
2023-05-21T14:38:27.914Z,27.34
2023-05-21T14:40:57.372Z,27.33
2023-05-21T14:43:26.934Z,27.35
2023-05-21T14:45:56.373Z,27.36
2023-05-21T14:48:26.657Z,27.30
2023-05-21T14:50:56.259Z,27.32
2023-05-21T14:53:25.526Z,27.34
2023-05-21T14:55:55.723Z,27.41
2023-05-21T14:58:25.262Z,27.46
2023-05-21T15:00:54.782Z,27.42
2023-05-21T15:03:25.209Z,27.41
2023-05-21T15:05:55.920Z,27.37
2023-05-21T15:08:26.020Z,27.46
2023-05-21T15:10:55.500Z,27.51
2023-05-21T15:13:24.947Z,27.58
2023-05-21T15:15:54.965Z,27.65
2023-05-21T15:18:25.046Z,27.65
2023-05-21T15:20:56.855Z,27.61
2023-05-21T15:23:26.324Z,27.55
2023-05-21T15:25:56.028Z,27.49
2023-05-21T15:28:26.008Z,27.34
2023-05-21T15:30:55.642Z,27.24
2023-05-21T15:33:25.090Z,27.06
2023-05-21T15:35:54.847Z,26.97
2023-05-21T15:38:24.423Z,26.86
2023-05-21T15:40:53.898Z,26.74
2023-05-21T15:43:23.983Z,26.76
2023-05-21T15:45:53.394Z,26.77
2023-05-21T15:48:23.199Z,26.83
2023-05-21T15:50:53.373Z,26.95
2023-05-21T15:53:22.823Z,27.12
2023-05-21T15:55:52.194Z,27.26
2023-05-21T15:58:22.060Z,27.31
2023-05-21T16:00:53.382Z,27.36
2023-05-21T16:03:26.065Z,27.28
2023-05-21T16:05:55.777Z,27.22
2023-05-21T16:08:25.222Z,27.37
2023-05-21T16:10:54.723Z,27.33
2023-05-21T16:13:24.204Z,27.24
2023-05-21T16:15:53.658Z,27.14
2023-05-21T16:18:23.139Z,27.03
2023-05-21T16:20:55.332Z,26.96
2023-05-21T16:23:24.846Z,26.73
2023-05-21T16:25:55.400Z,26.55
2023-05-21T16:30:58.171Z,26.08
2023-05-21T16:33:27.785Z,25.94
2023-05-21T16:35:57.305Z,25.80
2023-05-21T16:38:26.885Z,25.68
2023-05-21T16:40:57.154Z,25.55
2023-05-21T16:43:27.178Z,25.44
2023-05-21T16:45:56.686Z,25.34
2023-05-21T16:48:26.266Z,25.20
2023-05-21T16:50:55.597Z,25.05
2023-05-21T16:53:27.679Z,24.91
2023-05-21T16:55:58.316Z,24.77
2023-05-21T16:58:28.030Z,24.62
2023-05-21T17:00:58.271Z,24.46
2023-05-21T17:03:29.045Z,24.31
2023-05-21T17:05:58.843Z,24.17
2023-05-21T17:08:28.361Z,24.04
2023-05-21T17:10:58.538Z,23.91
2023-05-21T17:13:27.992Z,23.78
2023-05-21T17:15:57.616Z,23.64
2023-05-21T17:18:27.093Z,23.51
2023-05-21T17:20:56.515Z,23.41
2023-05-21T17:23:28.377Z,23.30
2023-05-21T17:25:59.056Z,23.18
2023-05-21T17:28:28.494Z,23.10
2023-05-21T17:30:58.433Z,23.02
2023-05-21T17:33:28.317Z,22.92
2023-05-21T17:35:57.805Z,22.82
2023-05-21T17:38:27.182Z,22.72
2023-05-21T17:40:56.788Z,22.63
2023-05-21T17:43:27.757Z,22.55
2023-05-21T17:45:57.310Z,22.46
2023-05-21T17:48:27.030Z,22.37
2023-05-21T17:50:56.364Z,22.27
2023-05-21T17:53:26.070Z,22.19
2023-05-21T17:55:55.446Z,22.12
2023-05-21T17:58:24.828Z,22.05
2023-05-21T18:00:54.390Z,21.98
2023-05-21T18:03:24.368Z,21.90
2023-05-21T18:05:53.737Z,21.83
2023-05-21T18:08:23.175Z,21.76
2023-05-21T18:10:52.596Z,21.68
2023-05-21T18:13:21.953Z,21.59
2023-05-21T18:15:51.343Z,21.53
2023-05-21T18:18:21.774Z,21.45
2023-05-21T18:20:53.130Z,21.27
2023-05-21T18:23:23.097Z,21.04
2023-05-21T18:25:52.442Z,20.87
2023-05-21T18:28:21.964Z,20.73
2023-05-21T18:30:51.365Z,20.61
2023-05-21T18:33:20.889Z,20.52
2023-05-21T18:35:50.392Z,20.43
2023-05-21T18:38:19.825Z,20.34
2023-05-21T18:40:51.442Z,20.27
2023-05-21T18:43:20.930Z,20.20
2023-05-21T18:45:50.976Z,20.10
2023-05-21T18:48:20.451Z,20.02
2023-05-21T18:50:49.967Z,19.94
2023-05-21T18:53:19.705Z,19.87
2023-05-21T18:55:48.978Z,19.81
2023-05-21T18:58:20.555Z,19.73
2023-05-21T19:00:50.218Z,19.67
2023-05-21T19:03:19.825Z,19.58
2023-05-21T19:05:49.134Z,19.51
2023-05-21T19:08:18.846Z,19.43
2023-05-21T19:10:50.491Z,19.37
2023-05-21T19:13:19.953Z,19.34
2023-05-21T19:15:49.382Z,19.30
2023-05-21T19:18:18.850Z,19.24
2023-05-21T19:20:48.176Z,19.17
2023-05-21T19:23:17.649Z,19.13
2023-05-21T19:25:46.969Z,19.08
2023-05-21T19:28:16.273Z,19.03
2023-05-21T19:30:46.482Z,18.99
2023-05-21T19:33:16.129Z,18.93
2023-05-21T19:35:45.641Z,18.89
2023-05-21T19:38:16.047Z,18.83
2023-05-21T19:40:45.612Z,18.79
2023-05-21T19:43:15.768Z,18.74
2023-05-21T19:45:46.111Z,18.70
2023-05-21T19:48:16.291Z,18.66
2023-05-21T19:50:45.823Z,18.62
2023-05-21T19:53:16.029Z,18.57
2023-05-21T19:55:46.276Z,18.52
2023-05-21T19:58:19.356Z,18.47
2023-05-21T20:00:49.441Z,18.42
2023-05-21T20:03:22.318Z,18.35
2023-05-21T20:05:52.888Z,18.30
2023-05-21T20:08:22.274Z,18.25
2023-05-21T20:10:52.153Z,18.21
2023-05-21T20:13:22.463Z,18.19
2023-05-21T20:15:52.146Z,18.16
2023-05-21T20:18:21.857Z,18.11
2023-05-21T20:20:51.526Z,18.09
2023-05-21T20:23:21.054Z,18.05
2023-05-21T20:25:50.605Z,18.03
2023-05-21T20:28:22.257Z,18.00
2023-05-21T20:30:58.132Z,17.97
2023-05-21T20:33:28.304Z,17.96
2023-05-21T20:36:01.475Z,17.95
2023-05-21T20:38:32.588Z,17.94
2023-05-21T20:41:04.234Z,17.93
2023-05-21T20:43:37.481Z,17.93
2023-05-21T20:46:11.334Z,17.92
2023-05-21T20:48:41.941Z,17.90
2023-05-21T20:51:11.459Z,17.88
2023-05-21T20:53:41.001Z,17.87
2023-05-21T20:56:16.109Z,17.84
2023-05-21T20:58:48.911Z,17.84
2023-05-21T21:01:18.924Z,17.82
2023-05-21T21:03:48.347Z,17.80
2023-05-21T21:06:18.930Z,17.75
2023-05-21T21:08:50.795Z,17.72
2023-05-21T21:11:20.254Z,17.67
2023-05-21T21:13:50.320Z,17.61
2023-05-21T21:16:19.696Z,17.55
2023-05-21T21:18:50.214Z,17.53
2023-05-21T21:21:19.872Z,17.48
2023-05-21T21:23:49.473Z,17.43
2023-05-21T21:26:18.929Z,17.39
2023-05-21T21:28:48.287Z,17.35
2023-05-21T21:31:17.791Z,17.29
2023-05-21T21:33:47.443Z,17.26
2023-05-21T21:36:16.997Z,17.22
2023-05-21T21:38:46.514Z,17.19
2023-05-21T21:41:16.018Z,17.14
2023-05-21T21:43:45.346Z,17.10
2023-05-21T21:46:15.671Z,17.08
2023-05-21T21:48:45.453Z,17.05
2023-05-21T21:51:15.842Z,17.03
2023-05-21T21:53:45.220Z,17.00
2023-05-21T21:56:15.121Z,16.96
2023-05-21T21:58:48.040Z,16.94
2023-05-21T22:01:17.814Z,16.89
2023-05-21T22:03:47.513Z,16.86
2023-05-21T22:06:21.436Z,16.84
2023-05-21T22:08:51.234Z,16.82
2023-05-21T22:11:28.845Z,16.78
2023-05-21T22:14:00.701Z,16.75
2023-05-21T22:16:30.310Z,16.70
2023-05-21T22:19:00.536Z,16.66
2023-05-21T22:21:33.031Z,16.63
2023-05-21T22:24:02.761Z,16.60
2023-05-21T22:26:33.553Z,16.57
2023-05-21T22:29:03.198Z,16.57
2023-05-21T22:31:32.663Z,16.53
2023-05-21T22:34:02.120Z,16.51
2023-05-21T22:36:31.639Z,16.50
2023-05-21T22:39:03.124Z,16.49
2023-05-21T22:41:33.109Z,16.47
2023-05-21T22:44:03.106Z,16.45
2023-05-21T22:46:32.868Z,16.43
2023-05-21T22:49:04.204Z,16.40
2023-05-21T22:54:22.851Z,16.30
2023-05-21T22:56:52.162Z,16.29
2023-05-21T22:59:21.502Z,16.26
2023-05-21T23:01:51.202Z,16.24
2023-05-21T23:04:35.762Z,16.22
2023-05-21T23:07:13.205Z,16.18
2023-05-21T23:09:42.655Z,16.13
2023-05-21T23:12:12.646Z,16.10
2023-05-21T23:14:43.528Z,16.07
2023-05-21T23:17:13.036Z,16.04
2023-05-21T23:19:45.869Z,16.03
2023-05-21T23:22:17.192Z,16.02
2023-05-21T23:24:50.735Z,16.00
2023-05-21T23:27:22.091Z,15.99
2023-05-21T23:29:52.673Z,16.00
2023-05-21T23:32:24.742Z,16.00
2023-05-21T23:34:54.285Z,16.00
2023-05-21T23:37:23.819Z,15.99
2023-05-21T23:39:53.230Z,15.97
2023-05-21T23:42:25.185Z,15.97
2023-05-21T23:44:54.606Z,15.94
2023-05-21T23:47:26.126Z,15.92
2023-05-21T23:49:58.979Z,15.91
2023-05-21T23:52:59.677Z,15.90
2023-05-21T23:55:29.049Z,15.90
2023-05-21T23:57:58.353Z,15.86
